sensor_id;sensor_type;location;lat;lon;timestamp;P1;durP1;ratioP1;P2;durP2;ratioP2
49314;SDS011;36672;50.710;12.498;2022-12-10T00:01:32;22.35;;;14.77;;
49314;SDS011;36672;50.710;12.498;2022-12-10T00:03:59;23.48;;;14.68;;
49314;SDS011;36672;50.710;12.498;2022-12-10T00:06:26;22.73;;;15.23;;
49314;SDS011;36672;50.710;12.498;2022-12-10T00:08:53;26.75;;;16.52;;
49314;SDS011;36672;50.710;12.498;2022-12-10T00:11:19;24.10;;;15.63;;
49314;SDS011;36672;50.710;12.498;2022-12-10T00:13:47;22.05;;;14.90;;
49314;SDS011;36672;50.710;12.498;2022-12-10T00:16:13;23.30;;;15.75;;
49314;SDS011;36672;50.710;12.498;2022-12-10T00:18:40;22.45;;;15.43;;
49314;SDS011;36672;50.710;12.498;2022-12-10T00:21:07;22.70;;;15.10;;
49314;SDS011;36672;50.710;12.498;2022-12-10T00:23:34;21.65;;;15.35;;
49314;SDS011;36672;50.710;12.498;2022-12-10T00:26:08;21.15;;;15.25;;
49314;SDS011;36672;50.710;12.498;2022-12-10T00:28:35;23.83;;;15.73;;
49314;SDS011;36672;50.710;12.498;2022-12-10T00:31:01;22.10;;;15.85;;
49314;SDS011;36672;50.710;12.498;2022-12-10T00:33:37;23.05;;;15.32;;
49314;SDS011;36672;50.710;12.498;2022-12-10T00:36:07;23.52;;;16.33;;
49314;SDS011;36672;50.710;12.498;2022-12-10T00:38:35;23.90;;;14.15;;
49314;SDS011;36672;50.710;12.498;2022-12-10T00:41:01;23.63;;;15.38;;
49314;SDS011;36672;50.710;12.498;2022-12-10T00:43:27;21.70;;;15.25;;
49314;SDS011;36672;50.710;12.498;2022-12-10T00:45:53;20.55;;;15.02;;
49314;SDS011;36672;50.710;12.498;2022-12-10T00:48:19;21.02;;;15.30;;
49314;SDS011;36672;50.710;12.498;2022-12-10T00:50:54;22.52;;;15.70;;
49314;SDS011;36672;50.710;12.498;2022-12-10T00:53:20;22.08;;;14.93;;
49314;SDS011;36672;50.710;12.498;2022-12-10T00:55:45;23.50;;;16.00;;
49314;SDS011;36672;50.710;12.498;2022-12-10T00:58:11;21.85;;;15.43;;
49314;SDS011;36672;50.710;12.498;2022-12-10T01:00:36;23.02;;;16.33;;
49314;SDS011;36672;50.710;12.498;2022-12-10T01:03:01;19.52;;;14.05;;
49314;SDS011;36672;50.710;12.498;2022-12-10T01:05:27;25.55;;;14.38;;
49314;SDS011;36672;50.710;12.498;2022-12-10T01:07:52;21.20;;;15.20;;
49314;SDS011;36672;50.710;12.498;2022-12-10T01:10:18;21.92;;;15.73;;
49314;SDS011;36672;50.710;12.498;2022-12-10T01:12:44;20.92;;;14.85;;
49314;SDS011;36672;50.710;12.498;2022-12-10T01:15:10;21.65;;;15.40;;
49314;SDS011;36672;50.710;12.498;2022-12-10T01:17:36;21.35;;;15.18;;
49314;SDS011;36672;50.710;12.498;2022-12-10T01:20:01;25.65;;;15.90;;
49314;SDS011;36672;50.710;12.498;2022-12-10T01:22:26;22.95;;;15.40;;
49314;SDS011;36672;50.710;12.498;2022-12-10T01:24:52;20.83;;;15.60;;
49314;SDS011;36672;50.710;12.498;2022-12-10T01:27:17;21.75;;;14.93;;
49314;SDS011;36672;50.710;12.498;2022-12-10T01:29:42;20.67;;;15.50;;
49314;SDS011;36672;50.710;12.498;2022-12-10T01:32:08;21.27;;;15.00;;
49314;SDS011;36672;50.710;12.498;2022-12-10T01:34:33;22.13;;;14.90;;
49314;SDS011;36672;50.710;12.498;2022-12-10T01:36:58;20.30;;;14.57;;
49314;SDS011;36672;50.710;12.498;2022-12-10T01:39:24;20.02;;;15.20;;
49314;SDS011;36672;50.710;12.498;2022-12-10T01:46:50;19.25;;;14.25;;
49314;SDS011;36672;50.710;12.498;2022-12-10T01:49:21;20.02;;;14.20;;
49314;SDS011;36672;50.710;12.498;2022-12-10T01:51:48;21.30;;;14.32;;
49314;SDS011;36672;50.710;12.498;2022-12-10T01:54:26;21.25;;;14.40;;
49314;SDS011;36672;50.710;12.498;2022-12-10T01:56:57;19.42;;;14.45;;
49314;SDS011;36672;50.710;12.498;2022-12-10T01:59:33;21.17;;;15.18;;
49314;SDS011;36672;50.710;12.498;2022-12-10T02:12:46;21.88;;;15.30;;
49314;SDS011;36672;50.710;12.498;2022-12-10T02:15:27;20.92;;;15.30;;
49314;SDS011;36672;50.710;12.498;2022-12-10T02:17:58;21.98;;;15.52;;
49314;SDS011;36672;50.710;12.498;2022-12-10T02:20:31;22.50;;;15.30;;
49314;SDS011;36672;50.710;12.498;2022-12-10T02:23:10;23.20;;;15.68;;
49314;SDS011;36672;50.710;12.498;2022-12-10T02:31:10;22.63;;;15.07;;
49314;SDS011;36672;50.710;12.498;2022-12-10T02:33:40;25.73;;;15.43;;
49314;SDS011;36672;50.710;12.498;2022-12-10T02:36:10;25.08;;;16.20;;
49314;SDS011;36672;50.710;12.498;2022-12-10T02:38:39;23.00;;;15.52;;
49314;SDS011;36672;50.710;12.498;2022-12-10T02:41:08;26.65;;;17.23;;
49314;SDS011;36672;50.710;12.498;2022-12-10T02:43:48;25.38;;;15.95;;
49314;SDS011;36672;50.710;12.498;2022-12-10T02:46:17;30.85;;;17.35;;
49314;SDS011;36672;50.710;12.498;2022-12-10T02:48:42;26.90;;;17.38;;
49314;SDS011;36672;50.710;12.498;2022-12-10T02:51:11;27.27;;;16.23;;
49314;SDS011;36672;50.710;12.498;2022-12-10T02:53:43;28.35;;;16.70;;
49314;SDS011;36672;50.710;12.498;2022-12-10T02:56:13;26.30;;;16.60;;
49314;SDS011;36672;50.710;12.498;2022-12-10T03:01:50;25.17;;;15.65;;
49314;SDS011;36672;50.710;12.498;2022-12-10T03:05:07;29.10;;;15.95;;
49314;SDS011;36672;50.710;12.498;2022-12-10T03:07:30;27.95;;;17.30;;
49314;SDS011;36672;50.710;12.498;2022-12-10T03:10:11;27.70;;;16.63;;
49314;SDS011;36672;50.710;12.498;2022-12-10T03:12:42;27.98;;;17.52;;
49314;SDS011;36672;50.710;12.498;2022-12-10T03:15:12;29.63;;;17.85;;
49314;SDS011;36672;50.710;12.498;2022-12-10T03:17:39;29.42;;;17.38;;
49314;SDS011;36672;50.710;12.498;2022-12-10T03:20:09;27.95;;;17.55;;
49314;SDS011;36672;50.710;12.498;2022-12-10T03:22:38;29.40;;;17.13;;
49314;SDS011;36672;50.710;12.498;2022-12-10T03:25:08;33.28;;;18.67;;
49314;SDS011;36672;50.710;12.498;2022-12-10T03:27:37;32.85;;;19.05;;
49314;SDS011;36672;50.710;12.498;2022-12-10T03:30:06;30.17;;;17.30;;
49314;SDS011;36672;50.710;12.498;2022-12-10T03:32:32;28.65;;;16.27;;
49314;SDS011;36672;50.710;12.498;2022-12-10T03:34:58;33.05;;;18.67;;
49314;SDS011;36672;50.710;12.498;2022-12-10T03:37:26;32.47;;;17.63;;
49314;SDS011;36672;50.710;12.498;2022-12-10T03:39:54;31.42;;;17.90;;
49314;SDS011;36672;50.710;12.498;2022-12-10T03:42:20;30.23;;;17.30;;
49314;SDS011;36672;50.710;12.498;2022-12-10T03:44:48;31.75;;;17.25;;
49314;SDS011;36672;50.710;12.498;2022-12-10T03:47:15;31.13;;;17.70;;
49314;SDS011;36672;50.710;12.498;2022-12-10T03:49:41;32.80;;;17.60;;
49314;SDS011;36672;50.710;12.498;2022-12-10T03:52:07;35.28;;;17.98;;
49314;SDS011;36672;50.710;12.498;2022-12-10T03:54:33;34.72;;;18.45;;
49314;SDS011;36672;50.710;12.498;2022-12-10T03:56:58;36.03;;;19.00;;
49314;SDS011;36672;50.710;12.498;2022-12-10T03:59:24;38.45;;;18.27;;
49314;SDS011;36672;50.710;12.498;2022-12-10T04:01:49;35.22;;;18.50;;
49314;SDS011;36672;50.710;12.498;2022-12-10T04:04:14;37.70;;;18.70;;
49314;SDS011;36672;50.710;12.498;2022-12-10T04:06:40;38.38;;;19.00;;
49314;SDS011;36672;50.710;12.498;2022-12-10T04:09:06;36.55;;;19.00;;
49314;SDS011;36672;50.710;12.498;2022-12-10T04:11:37;38.78;;;18.17;;
49314;SDS011;36672;50.710;12.498;2022-12-10T04:14:02;35.40;;;17.50;;
49314;SDS011;36672;50.710;12.498;2022-12-10T04:17:06;38.50;;;18.60;;
49314;SDS011;36672;50.710;12.498;2022-12-10T04:19:31;34.25;;;17.17;;
49314;SDS011;36672;50.710;12.498;2022-12-10T04:21:57;38.25;;;18.15;;
49314;SDS011;36672;50.710;12.498;2022-12-10T04:24:40;36.10;;;17.55;;
49314;SDS011;36672;50.710;12.498;2022-12-10T04:29:55;36.10;;;18.02;;
49314;SDS011;36672;50.710;12.498;2022-12-10T04:32:22;37.08;;;16.98;;
49314;SDS011;36672;50.710;12.498;2022-12-10T04:34:48;36.58;;;17.48;;
49314;SDS011;36672;50.710;12.498;2022-12-10T04:37:14;34.38;;;17.73;;
49314;SDS011;36672;50.710;12.498;2022-12-10T04:39:41;33.33;;;16.77;;
49314;SDS011;36672;50.710;12.498;2022-12-10T04:42:07;34.03;;;16.95;;
49314;SDS011;36672;50.710;12.498;2022-12-10T04:44:33;31.80;;;15.90;;
49314;SDS011;36672;50.710;12.498;2022-12-10T04:46:59;34.25;;;16.90;;
49314;SDS011;36672;50.710;12.498;2022-12-10T04:49:24;35.47;;;16.92;;
49314;SDS011;36672;50.710;12.498;2022-12-10T04:51:50;32.13;;;16.70;;
49314;SDS011;36672;50.710;12.498;2022-12-10T04:54:15;32.97;;;17.02;;
49314;SDS011;36672;50.710;12.498;2022-12-10T04:56:41;32.40;;;16.67;;
49314;SDS011;36672;50.710;12.498;2022-12-10T04:59:07;33.33;;;17.13;;
49314;SDS011;36672;50.710;12.498;2022-12-10T05:01:34;33.55;;;16.40;;
49314;SDS011;36672;50.710;12.498;2022-12-10T05:04:01;38.17;;;18.63;;
49314;SDS011;36672;50.710;12.498;2022-12-10T05:06:29;33.92;;;18.10;;
49314;SDS011;36672;50.710;12.498;2022-12-10T05:08:55;43.08;;;20.10;;
49314;SDS011;36672;50.710;12.498;2022-12-10T05:11:21;35.88;;;18.10;;
49314;SDS011;36672;50.710;12.498;2022-12-10T05:13:49;35.33;;;17.45;;
49314;SDS011;36672;50.710;12.498;2022-12-10T05:16:16;36.15;;;17.98;;
49314;SDS011;36672;50.710;12.498;2022-12-10T05:18:42;33.88;;;17.73;;
49314;SDS011;36672;50.710;12.498;2022-12-10T05:21:13;33.78;;;16.65;;
49314;SDS011;36672;50.710;12.498;2022-12-10T05:23:44;33.92;;;17.48;;
49314;SDS011;36672;50.710;12.498;2022-12-10T05:26:12;34.58;;;17.63;;
49314;SDS011;36672;50.710;12.498;2022-12-10T05:28:47;35.17;;;16.25;;
49314;SDS011;36672;50.710;12.498;2022-12-10T05:31:18;36.25;;;17.83;;
49314;SDS011;36672;50.710;12.498;2022-12-10T05:33:46;34.33;;;16.67;;
49314;SDS011;36672;50.710;12.498;2022-12-10T05:36:12;34.00;;;17.10;;
49314;SDS011;36672;50.710;12.498;2022-12-10T05:38:39;36.40;;;17.67;;
49314;SDS011;36672;50.710;12.498;2022-12-10T05:41:06;33.45;;;16.45;;
49314;SDS011;36672;50.710;12.498;2022-12-10T05:43:34;34.90;;;17.13;;
49314;SDS011;36672;50.710;12.498;2022-12-10T05:46:03;35.08;;;18.10;;
49314;SDS011;36672;50.710;12.498;2022-12-10T05:48:31;34.35;;;16.80;;
49314;SDS011;36672;50.710;12.498;2022-12-10T05:50:57;39.03;;;18.58;;
49314;SDS011;36672;50.710;12.498;2022-12-10T05:53:23;34.60;;;18.05;;
49314;SDS011;36672;50.710;12.498;2022-12-10T05:55:49;34.85;;;17.98;;
49314;SDS011;36672;50.710;12.498;2022-12-10T05:58:15;31.95;;;16.65;;
49314;SDS011;36672;50.710;12.498;2022-12-10T06:00:40;35.03;;;17.48;;
49314;SDS011;36672;50.710;12.498;2022-12-10T06:03:06;30.33;;;16.48;;
49314;SDS011;36672;50.710;12.498;2022-12-10T06:05:38;31.27;;;15.90;;
49314;SDS011;36672;50.710;12.498;2022-12-10T06:08:05;35.67;;;17.27;;
49314;SDS011;36672;50.710;12.498;2022-12-10T06:10:33;34.88;;;15.75;;
49314;SDS011;36672;50.710;12.498;2022-12-10T06:13:00;30.27;;;16.08;;
49314;SDS011;36672;50.710;12.498;2022-12-10T06:15:25;31.83;;;16.48;;
49314;SDS011;36672;50.710;12.498;2022-12-10T06:17:51;31.15;;;16.33;;
49314;SDS011;36672;50.710;12.498;2022-12-10T06:20:16;29.98;;;15.55;;
49314;SDS011;36672;50.710;12.498;2022-12-10T06:22:41;29.67;;;15.50;;
49314;SDS011;36672;50.710;12.498;2022-12-10T06:25:07;31.02;;;14.93;;
49314;SDS011;36672;50.710;12.498;2022-12-10T06:27:33;32.45;;;16.30;;
49314;SDS011;36672;50.710;12.498;2022-12-10T06:29:58;32.47;;;16.65;;
49314;SDS011;36672;50.710;12.498;2022-12-10T06:32:24;30.83;;;15.23;;
49314;SDS011;36672;50.710;12.498;2022-12-10T06:34:49;37.25;;;17.75;;
49314;SDS011;36672;50.710;12.498;2022-12-10T06:37:15;34.78;;;16.65;;
49314;SDS011;36672;50.710;12.498;2022-12-10T06:39:40;33.38;;;16.83;;
49314;SDS011;36672;50.710;12.498;2022-12-10T06:42:05;32.35;;;16.33;;
49314;SDS011;36672;50.710;12.498;2022-12-10T06:44:31;32.25;;;16.15;;
49314;SDS011;36672;50.710;12.498;2022-12-10T06:46:56;32.78;;;16.42;;
49314;SDS011;36672;50.710;12.498;2022-12-10T06:49:21;32.45;;;15.70;;
49314;SDS011;36672;50.710;12.498;2022-12-10T06:51:47;37.10;;;16.63;;
49314;SDS011;36672;50.710;12.498;2022-12-10T06:54:12;31.63;;;16.77;;
49314;SDS011;36672;50.710;12.498;2022-12-10T06:56:38;35.85;;;17.10;;
49314;SDS011;36672;50.710;12.498;2022-12-10T06:59:04;35.83;;;17.85;;
49314;SDS011;36672;50.710;12.498;2022-12-10T07:01:31;37.17;;;16.98;;
49314;SDS011;36672;50.710;12.498;2022-12-10T07:03:57;36.22;;;18.35;;
49314;SDS011;36672;50.710;12.498;2022-12-10T07:06:22;33.60;;;16.98;;
49314;SDS011;36672;50.710;12.498;2022-12-10T07:08:50;32.55;;;15.95;;
49314;SDS011;36672;50.710;12.498;2022-12-10T07:11:17;34.72;;;17.08;;
49314;SDS011;36672;50.710;12.498;2022-12-10T07:13:44;34.17;;;16.33;;
49314;SDS011;36672;50.710;12.498;2022-12-10T07:16:14;34.92;;;15.85;;
49314;SDS011;36672;50.710;12.498;2022-12-10T07:18:41;34.97;;;16.40;;
49314;SDS011;36672;50.710;12.498;2022-12-10T07:21:41;36.78;;;18.58;;
49314;SDS011;36672;50.710;12.498;2022-12-10T07:24:00;34.42;;;16.50;;
49314;SDS011;36672;50.710;12.498;2022-12-10T07:26:29;34.97;;;16.20;;
49314;SDS011;36672;50.710;12.498;2022-12-10T07:28:58;34.85;;;16.63;;
49314;SDS011;36672;50.710;12.498;2022-12-10T07:31:24;38.58;;;18.98;;
49314;SDS011;36672;50.710;12.498;2022-12-10T07:33:50;36.67;;;19.05;;
49314;SDS011;36672;50.710;12.498;2022-12-10T07:36:17;33.75;;;17.85;;
49314;SDS011;36672;50.710;12.498;2022-12-10T07:38:43;37.08;;;18.35;;
49314;SDS011;36672;50.710;12.498;2022-12-10T07:41:10;35.13;;;17.05;;
49314;SDS011;36672;50.710;12.498;2022-12-10T07:43:37;35.33;;;16.85;;
49314;SDS011;36672;50.710;12.498;2022-12-10T07:46:05;36.15;;;18.58;;
49314;SDS011;36672;50.710;12.498;2022-12-10T07:48:42;36.15;;;19.42;;
49314;SDS011;36672;50.710;12.498;2022-12-10T07:51:08;38.30;;;18.23;;
49314;SDS011;36672;50.710;12.498;2022-12-10T07:53:34;35.53;;;18.48;;
49314;SDS011;36672;50.710;12.498;2022-12-10T07:55:59;39.65;;;19.80;;
49314;SDS011;36672;50.710;12.498;2022-12-10T07:58:25;33.60;;;17.45;;
49314;SDS011;36672;50.710;12.498;2022-12-10T08:00:51;35.17;;;18.05;;
49314;SDS011;36672;50.710;12.498;2022-12-10T08:03:16;35.58;;;17.45;;
49314;SDS011;36672;50.710;12.498;2022-12-10T08:05:42;29.98;;;16.25;;
49314;SDS011;36672;50.710;12.498;2022-12-10T08:08:07;32.33;;;17.42;;
49314;SDS011;36672;50.710;12.498;2022-12-10T08:10:33;32.80;;;18.40;;
49314;SDS011;36672;50.710;12.498;2022-12-10T08:12:59;33.38;;;16.50;;
49314;SDS011;36672;50.710;12.498;2022-12-10T08:15:24;30.75;;;15.63;;
49314;SDS011;36672;50.710;12.498;2022-12-10T08:17:50;32.55;;;17.33;;
49314;SDS011;36672;50.710;12.498;2022-12-10T08:20:15;31.50;;;17.00;;
49314;SDS011;36672;50.710;12.498;2022-12-10T08:22:41;27.48;;;15.52;;
49314;SDS011;36672;50.710;12.498;2022-12-10T08:25:06;33.88;;;16.48;;
49314;SDS011;36672;50.710;12.498;2022-12-10T08:27:32;27.00;;;14.95;;
49314;SDS011;36672;50.710;12.498;2022-12-10T08:29:57;30.02;;;14.98;;
49314;SDS011;36672;50.710;12.498;2022-12-10T08:32:23;27.17;;;15.35;;
49314;SDS011;36672;50.710;12.498;2022-12-10T08:34:48;25.85;;;14.93;;
49314;SDS011;36672;50.710;12.498;2022-12-10T08:37:14;26.10;;;14.75;;
49314;SDS011;36672;50.710;12.498;2022-12-10T08:39:39;23.33;;;13.55;;
49314;SDS011;36672;50.710;12.498;2022-12-10T08:42:05;23.20;;;13.55;;
49314;SDS011;36672;50.710;12.498;2022-12-10T08:44:30;22.95;;;13.82;;
49314;SDS011;36672;50.710;12.498;2022-12-10T08:46:56;23.52;;;13.70;;
49314;SDS011;36672;50.710;12.498;2022-12-10T08:49:21;21.58;;;13.05;;
49314;SDS011;36672;50.710;12.498;2022-12-10T08:51:46;22.60;;;13.48;;
49314;SDS011;36672;50.710;12.498;2022-12-10T08:54:12;28.33;;;15.55;;
49314;SDS011;36672;50.710;12.498;2022-12-10T08:56:37;28.60;;;14.77;;
49314;SDS011;36672;50.710;12.498;2022-12-10T08:59:04;23.05;;;13.90;;
49314;SDS011;36672;50.710;12.498;2022-12-10T09:01:30;25.08;;;15.02;;
49314;SDS011;36672;50.710;12.498;2022-12-10T09:03:55;22.20;;;13.88;;
49314;SDS011;36672;50.710;12.498;2022-12-10T09:06:21;22.52;;;13.07;;
49314;SDS011;36672;50.710;12.498;2022-12-10T09:08:51;23.10;;;13.93;;
49314;SDS011;36672;50.710;12.498;2022-12-10T09:11:19;23.60;;;13.68;;
49314;SDS011;36672;50.710;12.498;2022-12-10T09:13:49;21.52;;;13.02;;
49314;SDS011;36672;50.710;12.498;2022-12-10T09:16:15;21.63;;;13.60;;
49314;SDS011;36672;50.710;12.498;2022-12-10T09:18:40;21.45;;;13.45;;
49314;SDS011;36672;50.710;12.498;2022-12-10T09:21:06;24.77;;;13.88;;
49314;SDS011;36672;50.710;12.498;2022-12-10T09:23:34;21.30;;;13.05;;
49314;SDS011;36672;50.710;12.498;2022-12-10T09:25:59;21.85;;;13.50;;
49314;SDS011;36672;50.710;12.498;2022-12-10T09:28:25;21.83;;;12.95;;
49314;SDS011;36672;50.710;12.498;2022-12-10T09:30:56;20.50;;;12.48;;
49314;SDS011;36672;50.710;12.498;2022-12-10T09:33:23;19.70;;;11.63;;
49314;SDS011;36672;50.710;12.498;2022-12-10T09:35:49;18.80;;;11.65;;
49314;SDS011;36672;50.710;12.498;2022-12-10T09:38:15;18.27;;;11.13;;
49314;SDS011;36672;50.710;12.498;2022-12-10T09:40:42;16.23;;;11.18;;
49314;SDS011;36672;50.710;12.498;2022-12-10T09:46:02;15.15;;;10.10;;
49314;SDS011;36672;50.710;12.498;2022-12-10T09:51:35;14.13;;;9.57;;
49314;SDS011;36672;50.710;12.498;2022-12-10T09:54:03;17.90;;;11.05;;
49314;SDS011;36672;50.710;12.498;2022-12-10T09:56:36;16.13;;;10.43;;
49314;SDS011;36672;50.710;12.498;2022-12-10T10:04:48;13.80;;;9.35;;
49314;SDS011;36672;50.710;12.498;2022-12-10T10:07:25;14.45;;;9.82;;
49314;SDS011;36672;50.710;12.498;2022-12-10T10:09:58;14.27;;;9.85;;
49314;SDS011;36672;50.710;12.498;2022-12-10T10:12:29;15.05;;;9.63;;
49314;SDS011;36672;50.710;12.498;2022-12-10T10:14:56;13.35;;;8.95;;
49314;SDS011;36672;50.710;12.498;2022-12-10T10:17:30;14.90;;;9.40;;
49314;SDS011;36672;50.710;12.498;2022-12-10T10:20:00;15.77;;;9.57;;
49314;SDS011;36672;50.710;12.498;2022-12-10T10:22:26;13.18;;;9.20;;
49314;SDS011;36672;50.710;12.498;2022-12-10T10:24:51;15.50;;;10.02;;
49314;SDS011;36672;50.710;12.498;2022-12-10T10:27:17;15.63;;;10.10;;
49314;SDS011;36672;50.710;12.498;2022-12-10T10:29:50;13.52;;;9.40;;
49314;SDS011;36672;50.710;12.498;2022-12-10T10:32:20;14.48;;;9.02;;
49314;SDS011;36672;50.710;12.498;2022-12-10T10:35:19;18.25;;;10.40;;
49314;SDS011;36672;50.710;12.498;2022-12-10T10:37:52;16.65;;;10.55;;
49314;SDS011;36672;50.710;12.498;2022-12-10T10:43:18;19.13;;;11.80;;
49314;SDS011;36672;50.710;12.498;2022-12-10T10:45:51;18.20;;;10.73;;
49314;SDS011;36672;50.710;12.498;2022-12-10T10:48:20;16.83;;;11.00;;
49314;SDS011;36672;50.710;12.498;2022-12-10T10:50:52;19.63;;;12.55;;
49314;SDS011;36672;50.710;12.498;2022-12-10T10:53:21;20.02;;;12.43;;
49314;SDS011;36672;50.710;12.498;2022-12-10T10:55:53;21.25;;;13.25;;
49314;SDS011;36672;50.710;12.498;2022-12-10T10:58:21;20.20;;;12.25;;
49314;SDS011;36672;50.710;12.498;2022-12-10T11:00:53;21.38;;;13.35;;
49314;SDS011;36672;50.710;12.498;2022-12-10T11:03:44;21.15;;;12.75;;
49314;SDS011;36672;50.710;12.498;2022-12-10T11:06:12;23.65;;;13.30;;
49314;SDS011;36672;50.710;12.498;2022-12-10T11:08:38;21.33;;;12.55;;
49314;SDS011;36672;50.710;12.498;2022-12-10T11:11:20;22.95;;;13.57;;
49314;SDS011;36672;50.710;12.498;2022-12-10T11:13:50;23.67;;;14.45;;
49314;SDS011;36672;50.710;12.498;2022-12-10T11:16:20;20.45;;;12.50;;
49314;SDS011;36672;50.710;12.498;2022-12-10T11:21:32;21.45;;;12.88;;
49314;SDS011;36672;50.710;12.498;2022-12-10T11:23:59;22.80;;;13.82;;
49314;SDS011;36672;50.710;12.498;2022-12-10T11:37:45;20.48;;;12.95;;
49314;SDS011;36672;50.710;12.498;2022-12-10T11:40:54;19.58;;;12.80;;
49314;SDS011;36672;50.710;12.498;2022-12-10T11:49:25;19.38;;;11.55;;
49314;SDS011;36672;50.710;12.498;2022-12-10T11:54:37;19.08;;;12.65;;
49314;SDS011;36672;50.710;12.498;2022-12-10T12:00:14;19.42;;;12.93;;
49314;SDS011;36672;50.710;12.498;2022-12-10T12:05:29;18.55;;;12.55;;
49314;SDS011;36672;50.710;12.498;2022-12-10T12:08:15;19.27;;;11.85;;
49314;SDS011;36672;50.710;12.498;2022-12-10T12:16:19;17.02;;;11.48;;
49314;SDS011;36672;50.710;12.498;2022-12-10T12:19:05;18.67;;;12.30;;
49314;SDS011;36672;50.710;12.498;2022-12-10T12:21:38;18.30;;;11.75;;
49314;SDS011;36672;50.710;12.498;2022-12-10T12:24:08;17.15;;;11.18;;
49314;SDS011;36672;50.710;12.498;2022-12-10T12:26:42;17.95;;;11.48;;
49314;SDS011;36672;50.710;12.498;2022-12-10T12:29:21;16.80;;;11.43;;
49314;SDS011;36672;50.710;12.498;2022-12-10T12:31:57;16.77;;;11.60;;
49314;SDS011;36672;50.710;12.498;2022-12-10T12:34:28;19.13;;;12.48;;
49314;SDS011;36672;50.710;12.498;2022-12-10T12:36:54;16.55;;;10.80;;
49314;SDS011;36672;50.710;12.498;2022-12-10T12:45:02;17.27;;;11.02;;
49314;SDS011;36672;50.710;12.498;2022-12-10T12:50:25;18.70;;;11.27;;
49314;SDS011;36672;50.710;12.498;2022-12-10T12:52:58;19.33;;;12.38;;
49314;SDS011;36672;50.710;12.498;2022-12-10T13:01:07;19.85;;;12.65;;
49314;SDS011;36672;50.710;12.498;2022-12-10T13:03:44;19.30;;;12.38;;
49314;SDS011;36672;50.710;12.498;2022-12-10T13:06:18;20.70;;;13.27;;
49314;SDS011;36672;50.710;12.498;2022-12-10T13:11:19;25.27;;;15.70;;
49314;SDS011;36672;50.710;12.498;2022-12-10T13:35:42;22.80;;;13.65;;
49314;SDS011;36672;50.710;12.498;2022-12-10T13:38:15;22.38;;;13.52;;
49314;SDS011;36672;50.710;12.498;2022-12-10T13:40:56;20.58;;;12.98;;
49314;SDS011;36672;50.710;12.498;2022-12-10T13:43:42;22.17;;;13.77;;
49314;SDS011;36672;50.710;12.498;2022-12-10T13:46:57;19.55;;;12.77;;
49314;SDS011;36672;50.710;12.498;2022-12-10T13:49:48;21.60;;;13.10;;
49314;SDS011;36672;50.710;12.498;2022-12-10T13:52:17;19.92;;;12.15;;
49314;SDS011;36672;50.710;12.498;2022-12-10T13:54:53;21.80;;;13.13;;
49314;SDS011;36672;50.710;12.498;2022-12-10T14:00:00;23.00;;;14.15;;
49314;SDS011;36672;50.710;12.498;2022-12-10T14:11:18;22.10;;;14.13;;
49314;SDS011;36672;50.710;12.498;2022-12-10T14:13:49;24.23;;;14.50;;
49314;SDS011;36672;50.710;12.498;2022-12-10T14:16:18;24.42;;;15.13;;
49314;SDS011;36672;50.710;12.498;2022-12-10T14:19:01;25.08;;;14.75;;
49314;SDS011;36672;50.710;12.498;2022-12-10T14:21:36;22.98;;;14.38;;
49314;SDS011;36672;50.710;12.498;2022-12-10T14:24:04;21.63;;;14.20;;
49314;SDS011;36672;50.710;12.498;2022-12-10T14:26:31;24.23;;;15.10;;
49314;SDS011;36672;50.710;12.498;2022-12-10T14:28:59;25.02;;;15.63;;
49314;SDS011;36672;50.710;12.498;2022-12-10T14:31:33;28.52;;;16.38;;
49314;SDS011;36672;50.710;12.498;2022-12-10T14:34:05;23.40;;;14.95;;
49314;SDS011;36672;50.710;12.498;2022-12-10T14:36:32;24.55;;;15.57;;
49314;SDS011;36672;50.710;12.498;2022-12-10T14:39:02;23.67;;;15.00;;
49314;SDS011;36672;50.710;12.498;2022-12-10T14:41:30;23.58;;;14.32;;
49314;SDS011;36672;50.710;12.498;2022-12-10T14:43:57;22.77;;;14.05;;
49314;SDS011;36672;50.710;12.498;2022-12-10T14:46:27;22.85;;;14.55;;
49314;SDS011;36672;50.710;12.498;2022-12-10T14:48:54;19.85;;;13.93;;
49314;SDS011;36672;50.710;12.498;2022-12-10T14:51:24;19.33;;;13.23;;
49314;SDS011;36672;50.710;12.498;2022-12-10T14:53:52;21.73;;;13.85;;
49314;SDS011;36672;50.710;12.498;2022-12-10T14:56:26;22.05;;;14.70;;
49314;SDS011;36672;50.710;12.498;2022-12-10T15:01:45;21.27;;;14.25;;
49314;SDS011;36672;50.710;12.498;2022-12-10T15:04:21;22.50;;;14.85;;
49314;SDS011;36672;50.710;12.498;2022-12-10T15:06:47;21.80;;;13.95;;
49314;SDS011;36672;50.710;12.498;2022-12-10T15:09:18;21.98;;;14.40;;
49314;SDS011;36672;50.710;12.498;2022-12-10T15:11:52;21.98;;;14.13;;
49314;SDS011;36672;50.710;12.498;2022-12-10T15:14:19;21.98;;;13.27;;
49314;SDS011;36672;50.710;12.498;2022-12-10T15:16:45;21.95;;;13.95;;
49314;SDS011;36672;50.710;12.498;2022-12-10T15:19:25;19.77;;;12.75;;
49314;SDS011;36672;50.710;12.498;2022-12-10T15:22:01;20.40;;;13.40;;
49314;SDS011;36672;50.710;12.498;2022-12-10T15:24:42;17.88;;;11.50;;
49314;SDS011;36672;50.710;12.498;2022-12-10T15:27:18;18.00;;;11.35;;
49314;SDS011;36672;50.710;12.498;2022-12-10T15:29:49;16.08;;;10.18;;
49314;SDS011;36672;50.710;12.498;2022-12-10T15:34:48;14.23;;;9.75;;
49314;SDS011;36672;50.710;12.498;2022-12-10T15:37:19;14.10;;;9.70;;
49314;SDS011;36672;50.710;12.498;2022-12-10T15:39:49;14.65;;;9.88;;
49314;SDS011;36672;50.710;12.498;2022-12-10T15:42:29;15.98;;;9.98;;
49314;SDS011;36672;50.710;12.498;2022-12-10T15:45:24;15.05;;;10.25;;
49314;SDS011;36672;50.710;12.498;2022-12-10T15:48:03;12.10;;;8.75;;
49314;SDS011;36672;50.710;12.498;2022-12-10T15:50:34;13.35;;;8.82;;
49314;SDS011;36672;50.710;12.498;2022-12-10T15:53:00;13.38;;;8.80;;
49314;SDS011;36672;50.710;12.498;2022-12-10T15:55:25;15.65;;;9.95;;
49314;SDS011;36672;50.710;12.498;2022-12-10T15:57:51;14.10;;;9.40;;
49314;SDS011;36672;50.710;12.498;2022-12-10T16:00:20;13.50;;;9.55;;
49314;SDS011;36672;50.710;12.498;2022-12-10T16:02:57;13.25;;;9.60;;
49314;SDS011;36672;50.710;12.498;2022-12-10T16:05:31;13.63;;;8.57;;
49314;SDS011;36672;50.710;12.498;2022-12-10T16:07:59;14.65;;;10.38;;
49314;SDS011;36672;50.710;12.498;2022-12-10T16:10:34;16.85;;;10.23;;
49314;SDS011;36672;50.710;12.498;2022-12-10T16:13:02;14.57;;;9.70;;
49314;SDS011;36672;50.710;12.498;2022-12-10T16:15:30;13.18;;;9.35;;
49314;SDS011;36672;50.710;12.498;2022-12-10T16:18:02;13.35;;;9.13;;
49314;SDS011;36672;50.710;12.498;2022-12-10T16:20:29;13.65;;;9.23;;
49314;SDS011;36672;50.710;12.498;2022-12-10T16:22:56;13.73;;;9.75;;
49314;SDS011;36672;50.710;12.498;2022-12-10T16:25:24;14.77;;;9.77;;
49314;SDS011;36672;50.710;12.498;2022-12-10T16:27:50;15.65;;;10.10;;
49314;SDS011;36672;50.710;12.498;2022-12-10T16:30:18;14.30;;;10.00;;
49314;SDS011;36672;50.710;12.498;2022-12-10T16:32:46;16.05;;;10.07;;
49314;SDS011;36672;50.710;12.498;2022-12-10T16:35:12;14.65;;;10.20;;